首页
METAR-TAF:

METAR-TAF

机场 :

巴亞馬雷, 罗马尼亚

纬度: 47-40N, 经度: 023-35E, 海拔: 218米

当前天气观测

该预报发布于31分钟前的07:30 UTC
风速2节,风向东转东北
温度 4°C
湿度 81%
气压 1020 hPa
能见度10公里或以上
散云层高于3600英尺
多云层高于5500英尺

METAR: LRBM 180730Z 07002KT 9999 SCT036 BKN055 04/01 Q1020

时间: 10:01 (08:01 UTC)

预报

该预报发布于3小时和1分钟前的05:00 UTC
预报有效从18日的 06点(UTC)到 18日的 15点(UTC)
风速4节,风向多变
能见度10公里或以上
散云层高于3500英尺
多云层高于5500英尺
短暂存在
从 18日的 09点(UTC)到 18日的 14点(UTC)
能見度: 5000
多云层高于1000英尺
阴天层高于3000英尺
小雨, 轻雾

TAF: LRBM 180500Z 1806/1815 VRB04KT 9999 SCT035 BKN055 TEMPO 1809/1814 5000 -RA BR BKN010 OVC030

超过4000个机场的气象观测和天气预报(METAR&TAF报告)。

可查询的气象台以黄色和红色小点在地图上表示。

将鼠标移到小点上方,可查看气象台名称。

然后点击查看天气观测和预报。

如需切换地图:点击带黑十字的绿色按钮放大地图;点击带横线的绿色按钮缩小地图;或者点击绿色箭头查看邻近地区的地图。


METAR-TAF: